Time;durP1;ratioP1;P1;durP2;ratioP2;P2;SDS_P1;SDS_P2;PMS_P1;PMS_P2;Temp;Humidity;BMP_temperature;BMP_pressure;BME280_temperature;BME280_humidity;BME280_pressure;Samples;Min_cycle;Max_cycle;Signal;HPM_P1;HPM_P2
2023/08/20 00:01:24;;;;;;;11.70;3.80;;;17.10;99.90;;;;;;5084840;28;20040;-78
2023/08/20 00:03:51;;;;;;;11.18;3.20;;;17.10;99.90;;;;;;5084120;28;20048;-79
2023/08/20 00:06:18;;;;;;;11.00;2.90;;;17.00;99.90;;;;;;5095778;28;20036;-78
2023/08/20 00:08:43;;;;;;;11.23;3.38;;;17.00;99.90;;;;;;5078114;28;20398;-79
2023/08/20 00:11:11;;;;;;;10.60;3.50;;;17.00;99.90;;;;;;5093706;28;20039;-78
2023/08/20 00:13:36;;;;;;;11.35;3.42;;;16.90;99.90;;;;;;5082206;28;20040;-78
2023/08/20 00:16:03;;;;;;;9.65;3.50;;;16.90;99.90;;;;;;5105305;28;20070;-78
2023/08/20 00:18:29;;;;;;;8.50;3.22;;;16.90;99.90;;;;;;5094901;28;20048;-78
2023/08/20 00:20:55;;;;;;;10.15;3.65;;;16.90;99.90;;;;;;5096822;28;20048;-78
2023/08/20 00:23:21;;;;;;;8.23;3.25;;;16.90;99.90;;;;;;5097207;28;20043;-78
2023/08/20 00:25:47;;;;;;;13.55;2.97;;;16.90;99.90;;;;;;5091536;28;20047;-79
2023/08/20 00:28:13;;;;;;;8.27;2.90;;;16.90;99.90;;;;;;5116494;28;20040;-78
2023/08/20 00:30:39;;;;;;;9.15;3.00;;;16.90;99.90;;;;;;5097397;27;20360;-78
2023/08/20 00:33:05;;;;;;;11.18;2.83;;;16.80;99.90;;;;;;5100339;28;20049;-77
2023/08/20 00:35:30;;;;;;;9.18;3.50;;;16.80;99.90;;;;;;5092618;28;20051;-78
2023/08/20 00:37:56;;;;;;;16.60;3.45;;;16.80;99.90;;;;;;5069149;28;20072;-77
2023/08/20 00:40:22;;;;;;;11.32;3.28;;;16.80;99.90;;;;;;5089534;28;20047;-78
2023/08/20 00:42:48;;;;;;;11.52;4.32;;;16.80;99.90;;;;;;5076563;28;20043;-78
2023/08/20 00:45:13;;;;;;;18.75;4.95;;;16.80;99.90;;;;;;5081734;28;20036;-78
2023/08/20 00:47:40;;;;;;;10.32;3.65;;;16.70;99.90;;;;;;5107070;28;20497;-78
2023/08/20 00:50:07;;;;;;;10.07;3.47;;;16.70;99.90;;;;;;5111284;28;20081;-78
2023/08/20 00:52:34;;;;;;;10.13;3.63;;;16.70;99.90;;;;;;5107414;28;20121;-78
2023/08/20 00:55:03;;;;;;;12.30;3.42;;;16.70;99.90;;;;;;5088892;28;20178;-78
2023/08/20 00:57:28;;;;;;;11.77;3.80;;;16.70;99.90;;;;;;5100332;28;20055;-79
2023/08/20 00:59:55;;;;;;;9.38;3.65;;;16.60;99.90;;;;;;5095566;28;20037;-78
2023/08/20 01:02:21;;;;;;;15.82;3.83;;;16.60;99.90;;;;;;5076983;28;20041;-77
2023/08/20 01:04:48;;;;;;;10.52;3.80;;;16.60;99.90;;;;;;5089239;28;20036;-77
2023/08/20 01:07:39;;;;;;;10.10;3.65;;;16.60;99.90;;;;;;5088573;28;20036;-77
2023/08/20 01:10:29;;;;;;;12.55;3.65;;;16.70;99.90;;;;;;5079820;28;20040;-76
2023/08/20 01:12:55;;;;;;;11.70;3.45;;;16.60;99.90;;;;;;5075250;28;20044;-77
2023/08/20 01:15:21;;;;;;;15.68;3.65;;;16.60;99.90;;;;;;5080150;28;20407;-77
2023/08/20 01:17:48;;;;;;;14.95;3.60;;;16.60;99.90;;;;;;5100043;28;20047;-78
2023/08/20 01:20:16;;;;;;;10.75;4.18;;;16.50;99.90;;;;;;5101190;28;20048;-77
2023/08/20 01:23:08;;;;;;;10.63;3.23;;;16.50;99.90;;;;;;5080074;28;20052;-77
2023/08/20 01:26:05;;;;;;;12.95;3.55;;;16.50;99.90;;;;;;5095291;28;20559;-77
2023/08/20 01:28:31;;;;;;;9.73;3.25;;;16.50;99.90;;;;;;5090909;28;20047;-77
2023/08/20 01:30:59;;;;;;;13.85;4.35;;;16.50;99.90;;;;;;5075008;28;20120;-77
2023/08/20 01:33:25;;;;;;;15.40;3.50;;;16.50;99.90;;;;;;5087688;28;20040;-77
2023/08/20 01:35:52;;;;;;;11.07;3.13;;;16.50;99.90;;;;;;5079705;28;20034;-78
2023/08/20 01:38:18;;;;;;;11.63;3.33;;;16.50;99.90;;;;;;5082169;28;20082;-77
2023/08/20 01:40:44;;;;;;;11.88;3.00;;;16.50;99.90;;;;;;5089000;28;20044;-78
2023/08/20 01:43:09;;;;;;;10.57;3.10;;;16.50;99.90;;;;;;5083100;28;20115;-77
2023/08/20 01:45:35;;;;;;;17.63;3.60;;;16.50;99.90;;;;;;5106937;28;20449;-77
2023/08/20 01:48:01;;;;;;;10.40;3.25;;;16.50;99.90;;;;;;5078179;28;20041;-78
2023/08/20 01:50:27;;;;;;;12.07;3.53;;;16.50;99.90;;;;;;5087836;28;20551;-78
2023/08/20 01:52:52;;;;;;;15.23;5.00;;;16.40;99.90;;;;;;5078705;28;20040;-77
2023/08/20 01:55:18;;;;;;;14.88;4.93;;;16.40;99.90;;;;;;5106457;27;20139;-77
2023/08/20 01:57:44;;;;;;;18.00;6.28;;;16.40;99.90;;;;;;5090861;28;20070;-78
2023/08/20 02:00:10;;;;;;;19.70;5.38;;;16.40;99.90;;;;;;5090599;28;20346;-77
2023/08/20 02:02:37;;;;;;;16.17;5.10;;;16.40;99.90;;;;;;5096927;28;20055;-77
2023/08/20 02:05:03;;;;;;;11.85;4.88;;;16.40;99.90;;;;;;5111409;28;20040;-77
2023/08/20 02:07:29;;;;;;;13.15;3.92;;;16.40;99.90;;;;;;5083281;28;20047;-78
2023/08/20 02:09:55;;;;;;;13.43;4.63;;;16.40;99.90;;;;;;5115651;28;20048;-77
2023/08/20 02:12:20;;;;;;;11.43;4.20;;;16.40;99.90;;;;;;5089377;28;20040;-77
2023/08/20 02:14:46;;;;;;;7.25;3.53;;;16.40;99.90;;;;;;5076057;28;20047;-77
2023/08/20 02:17:14;;;;;;;12.40;3.63;;;16.40;99.90;;;;;;5090835;28;20044;-78
2023/08/20 02:19:40;;;;;;;15.07;4.43;;;16.40;99.90;;;;;;5119646;27;20511;-78
2023/08/20 02:22:05;;;;;;;11.57;3.83;;;16.40;99.90;;;;;;5072971;28;20102;-78
2023/08/20 02:24:31;;;;;;;10.40;3.97;;;16.40;99.90;;;;;;5073167;28;20044;-77
2023/08/20 02:26:57;;;;;;;16.20;4.75;;;16.40;99.90;;;;;;5087803;28;20032;-77
2023/08/20 02:29:22;;;;;;;9.65;4.50;;;16.40;99.90;;;;;;5093844;28;20043;-77
2023/08/20 02:31:48;;;;;;;14.43;4.78;;;16.40;99.90;;;;;;5094834;28;20044;-78
2023/08/20 02:34:14;;;;;;;20.58;4.75;;;16.40;99.90;;;;;;5093704;28;20048;-77
2023/08/20 02:36:39;;;;;;;14.07;5.53;;;16.40;99.90;;;;;;5093637;28;20074;-77
2023/08/20 02:39:07;;;;;;;13.80;5.20;;;16.40;99.90;;;;;;5087543;28;20115;-77
2023/08/20 02:41:36;;;;;;;11.57;4.32;;;16.40;99.90;;;;;;5093138;28;20044;-77
2023/08/20 02:44:03;;;;;;;18.10;6.13;;;16.40;99.90;;;;;;5094033;28;20036;-78
2023/08/20 02:46:29;;;;;;;16.30;5.75;;;16.40;99.90;;;;;;5094625;28;20131;-78
2023/08/20 02:48:54;;;;;;;15.90;5.80;;;16.40;99.90;;;;;;5092713;28;20123;-77
2023/08/20 02:51:20;;;;;;;16.17;5.88;;;16.40;99.90;;;;;;5075861;28;20116;-77
2023/08/20 02:53:46;;;;;;;16.83;5.90;;;16.40;99.90;;;;;;5091062;28;20044;-77
2023/08/20 02:56:11;;;;;;;14.75;5.80;;;16.40;99.90;;;;;;5086046;28;20040;-77
2023/08/20 02:58:37;;;;;;;14.63;5.35;;;16.30;99.90;;;;;;5072093;28;20044;-77
2023/08/20 03:01:03;;;;;;;16.15;6.05;;;16.30;99.90;;;;;;5085789;28;20041;-77
2023/08/20 03:03:29;;;;;;;13.88;5.82;;;16.30;99.90;;;;;;5072182;28;20079;-77
2023/08/20 03:05:54;;;;;;;17.90;6.95;;;16.30;99.90;;;;;;5091029;28;20496;-77
2023/08/20 03:08:20;;;;;;;11.50;5.97;;;16.30;99.90;;;;;;5072720;28;20036;-77
2023/08/20 03:10:46;;;;;;;18.08;6.13;;;16.30;99.90;;;;;;5092151;28;20576;-77
2023/08/20 03:13:11;;;;;;;14.73;5.93;;;16.30;99.90;;;;;;5079640;28;20162;-77
2023/08/20 03:15:37;;;;;;;18.50;6.20;;;16.30;99.90;;;;;;5085193;28;20343;-77
2023/08/20 03:18:03;;;;;;;15.27;6.60;;;16.30;99.90;;;;;;5075044;28;20059;-77
2023/08/20 03:20:31;;;;;;;11.48;5.30;;;16.30;99.90;;;;;;5077534;28;20420;-77
2023/08/20 03:22:57;;;;;;;12.23;5.75;;;16.20;99.90;;;;;;5061943;28;20494;-77
2023/08/20 03:25:23;;;;;;;16.48;6.10;;;16.20;99.90;;;;;;5076501;28;20028;-78
2023/08/20 03:27:50;;;;;;;16.80;6.50;;;16.20;99.90;;;;;;5080894;28;20040;-78
2023/08/20 03:30:15;;;;;;;14.27;5.90;;;16.20;99.90;;;;;;5090168;28;20048;-77
2023/08/20 03:32:41;;;;;;;17.20;5.50;;;16.20;99.90;;;;;;5080222;28;20033;-77
2023/08/20 03:35:07;;;;;;;13.27;6.20;;;16.20;99.90;;;;;;5075529;28;20036;-77
2023/08/20 03:37:33;;;;;;;25.25;6.68;;;16.20;99.90;;;;;;5092934;28;20050;-78
2023/08/20 03:39:58;;;;;;;16.98;6.15;;;16.20;99.90;;;;;;5082712;28;20040;-78
2023/08/20 03:42:24;;;;;;;14.40;5.65;;;16.20;99.90;;;;;;5091656;28;20048;-77
2023/08/20 03:44:49;;;;;;;13.30;5.53;;;16.20;99.90;;;;;;5076571;28;20058;-76
2023/08/20 03:47:15;;;;;;;10.20;4.93;;;16.20;99.90;;;;;;5089200;28;20028;-76
2023/08/20 03:49:42;;;;;;;16.70;5.05;;;16.20;99.90;;;;;;5087586;28;20044;-77
2023/08/20 03:52:08;;;;;;;15.13;5.47;;;16.20;99.90;;;;;;5092323;28;20077;-76
2023/08/20 03:54:34;;;;;;;12.10;4.70;;;16.20;99.90;;;;;;5092306;28;20579;-77
2023/08/20 03:56:59;;;;;;;9.90;4.75;;;16.20;99.90;;;;;;5095171;28;20166;-77
2023/08/20 03:59:25;;;;;;;17.98;5.03;;;16.10;99.90;;;;;;5102769;28;20123;-76
2023/08/20 04:01:51;;;;;;;13.48;4.55;;;16.20;99.90;;;;;;5091049;28;20486;-76
2023/08/20 04:04:16;;;;;;;14.35;4.75;;;16.20;99.90;;;;;;5095718;28;20055;-76
2023/08/20 04:06:42;;;;;;;15.90;5.15;;;16.20;99.90;;;;;;5095941;28;20043;-76
2023/08/20 04:09:09;;;;;;;17.33;4.80;;;16.20;99.90;;;;;;5095514;28;20038;-76
2023/08/20 04:11:35;;;;;;;11.73;4.97;;;16.20;99.90;;;;;;5095986;28;20048;-76
2023/08/20 04:14:01;;;;;;;16.10;4.65;;;16.20;99.90;;;;;;5088963;28;20082;-76
2023/08/20 04:16:27;;;;;;;12.43;5.35;;;16.20;99.90;;;;;;5089919;28;20060;-76
2023/08/20 04:18:53;;;;;;;11.68;4.45;;;16.20;99.90;;;;;;5089469;28;20386;-76
2023/08/20 04:21:19;;;;;;;14.63;4.60;;;16.20;99.90;;;;;;5080404;28;20043;-77
2023/08/20 04:23:44;;;;;;;11.15;4.25;;;16.20;99.90;;;;;;5094836;28;20048;-76
2023/08/20 04:26:10;;;;;;;21.58;5.20;;;16.20;99.90;;;;;;5085837;28;20035;-76
2023/08/20 04:28:36;;;;;;;12.40;4.07;;;16.20;99.90;;;;;;5096117;28;20115;-76
2023/08/20 04:31:02;;;;;;;17.13;5.00;;;16.20;99.90;;;;;;5093443;28;20544;-76
2023/08/20 04:33:28;;;;;;;14.60;4.45;;;16.20;99.90;;;;;;5090078;28;20044;-76
2023/08/20 04:35:53;;;;;;;13.27;4.47;;;16.20;99.90;;;;;;5090769;28;20161;-77
2023/08/20 04:38:19;;;;;;;14.88;4.97;;;16.20;99.90;;;;;;5095585;28;20046;-76
2023/08/20 04:40:48;;;;;;;11.80;4.63;;;16.30;99.90;;;;;;5093159;28;20028;-76
2023/08/20 04:43:15;;;;;;;9.68;4.63;;;16.30;99.90;;;;;;5072433;28;20048;-77
2023/08/20 04:45:41;;;;;;;14.52;4.90;;;16.30;99.90;;;;;;5079437;28;20505;-76
2023/08/20 04:48:07;;;;;;;9.85;4.40;;;16.30;99.90;;;;;;5098489;28;20165;-75
2023/08/20 04:50:33;;;;;;;12.07;4.28;;;16.30;99.90;;;;;;5097576;28;20115;-76
2023/08/20 04:52:59;;;;;;;12.55;4.13;;;16.30;99.90;;;;;;5094787;28;20055;-76
2023/08/20 04:55:26;;;;;;;17.90;4.97;;;16.30;99.90;;;;;;5077612;28;20032;-76
2023/08/20 04:57:52;;;;;;;11.27;4.10;;;16.30;99.90;;;;;;5088260;28;20040;-76
2023/08/20 05:00:17;;;;;;;11.68;4.32;;;16.40;99.90;;;;;;5097804;28;20182;-75
2023/08/20 05:02:43;;;;;;;10.90;4.22;;;16.40;99.90;;;;;;5094912;28;20040;-75
2023/08/20 05:05:10;;;;;;;12.52;4.47;;;16.40;99.90;;;;;;5095991;28;20095;-75
2023/08/20 05:07:35;;;;;;;12.68;4.30;;;16.40;99.90;;;;;;5077513;28;20040;-75
2023/08/20 05:10:02;;;;;;;12.98;4.10;;;16.40;99.90;;;;;;5086274;28;20093;-75
2023/08/20 05:12:28;;;;;;;17.25;5.28;;;16.40;99.90;;;;;;5074156;28;20082;-75
2023/08/20 05:14:53;;;;;;;12.80;4.63;;;16.40;99.90;;;;;;5091005;28;20067;-75
2023/08/20 05:17:19;;;;;;;18.60;5.07;;;16.50;99.90;;;;;;5069825;28;20064;-76
2023/08/20 05:19:45;;;;;;;15.18;4.38;;;16.50;99.90;;;;;;5086711;28;20045;-75
2023/08/20 05:22:11;;;;;;;16.92;5.00;;;16.50;99.90;;;;;;5091104;28;20090;-76
2023/08/20 05:24:37;;;;;;;10.13;4.57;;;16.50;99.90;;;;;;5087763;28;20043;-76
2023/08/20 05:27:05;;;;;;;12.48;4.55;;;16.50;99.90;;;;;;5088028;28;20032;-76
2023/08/20 05:29:31;;;;;;;9.15;4.25;;;16.60;99.90;;;;;;5119274;27;20165;-76
2023/08/20 05:31:57;;;;;;;15.52;4.93;;;16.60;99.90;;;;;;5091424;28;20040;-76
2023/08/20 05:34:22;;;;;;;13.68;5.10;;;16.60;99.90;;;;;;5084401;28;20136;-76
2023/08/20 05:36:48;;;;;;;17.10;4.85;;;16.70;99.90;;;;;;5091620;28;20032;-75
2023/08/20 05:39:14;;;;;;;11.85;5.25;;;16.70;99.90;;;;;;5085116;28;20119;-75
2023/08/20 05:41:39;;;;;;;10.20;5.00;;;16.80;99.90;;;;;;5081424;28;20052;-76
2023/08/20 05:44:05;;;;;;;10.98;4.80;;;17.00;99.90;;;;;;5086683;28;20331;-77
2023/08/20 05:46:31;;;;;;;12.90;4.97;;;17.10;99.90;;;;;;5089990;28;20032;-77
2023/08/20 05:48:56;;;;;;;12.07;4.70;;;17.20;99.90;;;;;;5087205;28;20067;-77
2023/08/20 05:51:22;;;;;;;11.43;4.90;;;17.20;99.90;;;;;;5084819;28;20037;-77
2023/08/20 05:53:47;;;;;;;9.05;4.10;;;17.30;99.90;;;;;;5091237;28;20032;-76
2023/08/20 05:56:13;;;;;;;10.57;4.72;;;17.30;99.90;;;;;;5078096;28;20093;-76
2023/08/20 05:58:39;;;;;;;10.35;4.45;;;17.30;99.90;;;;;;5093562;28;20032;-76
2023/08/20 06:01:04;;;;;;;15.00;4.65;;;17.40;99.90;;;;;;5094007;28;20040;-76
2023/08/20 06:03:30;;;;;;;9.90;4.22;;;17.50;99.90;;;;;;5093527;28;20436;-76
2023/08/20 06:05:58;;;;;;;10.95;4.72;;;17.50;99.90;;;;;;5072886;28;20048;-76
2023/08/20 06:08:23;;;;;;;12.57;4.38;;;17.60;99.90;;;;;;5093940;28;20159;-76
2023/08/20 06:10:50;;;;;;;13.13;4.45;;;17.60;99.90;;;;;;5091522;28;20067;-76
2023/08/20 06:13:15;;;;;;;10.82;4.47;;;17.70;99.90;;;;;;5089008;28;20504;-77
2023/08/20 06:15:41;;;;;;;12.77;4.57;;;17.80;99.90;;;;;;5099499;28;20040;-75
2023/08/20 06:18:06;;;;;;;10.73;4.57;;;17.90;99.90;;;;;;5090415;28;20090;-75
2023/08/20 06:20:32;;;;;;;13.90;4.32;;;18.00;99.90;;;;;;5091957;28;20478;-74
2023/08/20 06:22:58;;;;;;;12.73;4.55;;;18.20;99.90;;;;;;5084933;28;20036;-76
2023/08/20 06:25:24;;;;;;;8.18;3.90;;;18.40;99.90;;;;;;5088806;28;20556;-76
2023/08/20 06:27:49;;;;;;;9.40;4.10;;;18.80;99.90;;;;;;5090075;28;20040;-76
2023/08/20 06:30:15;;;;;;;11.57;4.03;;;19.10;99.90;;;;;;5060971;28;20529;-76
2023/08/20 06:32:41;;;;;;;8.63;4.35;;;19.50;99.90;;;;;;5087429;28;20065;-76
2023/08/20 06:35:09;;;;;;;10.57;4.15;;;19.90;99.90;;;;;;5092109;28;20078;-76
2023/08/20 06:37:34;;;;;;;11.20;4.38;;;20.30;99.90;;;;;;5078517;28;20127;-74
2023/08/20 06:40:00;;;;;;;12.07;4.13;;;20.70;99.90;;;;;;5086161;28;20132;-75
2023/08/20 06:42:25;;;;;;;12.55;3.42;;;21.00;99.90;;;;;;5089010;28;20079;-74
2023/08/20 06:44:51;;;;;;;10.50;4.00;;;21.20;99.90;;;;;;5079365;28;20081;-76
2023/08/20 06:47:17;;;;;;;12.90;4.32;;;21.20;99.90;;;;;;5096120;28;20443;-75
2023/08/20 06:49:42;;;;;;;12.45;3.80;;;21.20;99.90;;;;;;5090845;28;20506;-76
2023/08/20 06:52:08;;;;;;;12.23;3.75;;;21.10;99.90;;;;;;5088593;28;20522;-75
2023/08/20 06:54:33;;;;;;;12.68;3.95;;;21.10;99.90;;;;;;5079026;28;20036;-76
2023/08/20 06:56:59;;;;;;;9.02;3.63;;;21.10;99.90;;;;;;5090413;28;20074;-76
2023/08/20 06:59:25;;;;;;;10.60;3.72;;;21.10;99.90;;;;;;5086407;28;20031;-76
2023/08/20 07:01:50;;;;;;;14.43;4.35;;;21.20;99.90;;;;;;5092570;28;20050;-76
2023/08/20 07:04:16;;;;;;;12.38;4.13;;;21.30;99.90;;;;;;5091634;28;20139;-76
2023/08/20 07:06:42;;;;;;;14.02;4.28;;;21.40;99.90;;;;;;5087501;28;20382;-77
2023/08/20 07:09:07;;;;;;;10.15;3.70;;;21.40;99.90;;;;;;5110692;27;20449;-77
2023/08/20 07:11:33;;;;;;;13.48;3.78;;;21.30;99.90;;;;;;5088176;28;20049;-75
2023/08/20 07:13:58;;;;;;;9.35;4.05;;;21.30;99.90;;;;;;5093216;28;20508;-75
2023/08/20 07:16:24;;;;;;;10.57;3.70;;;21.30;99.90;;;;;;5096673;28;20085;-76
2023/08/20 07:18:50;;;;;;;14.05;4.00;;;21.30;99.90;;;;;;5094756;28;20409;-76
2023/08/20 07:21:15;;;;;;;12.32;3.78;;;21.40;99.90;;;;;;5092989;28;20044;-75
2023/08/20 07:23:41;;;;;;;9.27;3.60;;;21.40;99.90;;;;;;5096121;28;20051;-75
2023/08/20 07:26:09;;;;;;;10.63;3.80;;;21.40;99.90;;;;;;5075983;28;20462;-76
2023/08/20 07:31:20;;;;;;;13.63;4.00;;;21.50;99.90;;;;;;5099412;28;20044;-76
2023/08/20 07:33:47;;;;;;;17.75;4.30;;;21.60;99.90;;;;;;5091683;28;20063;-76
2023/08/20 07:36:13;;;;;;;11.85;3.78;;;21.60;99.90;;;;;;5089858;28;20490;-78
2023/08/20 07:38:42;;;;;;;15.73;3.65;;;21.60;99.90;;;;;;5093216;28;20044;-76
2023/08/20 07:41:08;;;;;;;17.55;3.75;;;21.70;99.90;;;;;;5095821;28;20039;-76
2023/08/20 07:43:34;;;;;;;9.85;3.17;;;21.70;99.90;;;;;;5098533;28;20036;-76
2023/08/20 07:46:00;;;;;;;10.48;3.20;;;21.70;99.90;;;;;;5097308;28;20090;-77
2023/08/20 07:48:26;;;;;;;14.18;3.53;;;21.90;99.90;;;;;;5070695;28;20126;-76
2023/08/20 07:50:51;;;;;;;14.73;3.20;;;21.90;99.90;;;;;;5102062;28;20040;-75
2023/08/20 07:53:17;;;;;;;11.82;2.95;;;22.00;99.90;;;;;;5114190;28;20064;-74
2023/08/20 07:55:43;;;;;;;13.38;3.88;;;22.00;99.90;;;;;;5099865;28;20127;-75
2023/08/20 07:58:10;;;;;;;14.73;3.65;;;22.10;99.90;;;;;;5093060;28;20052;-76
2023/08/20 08:00:35;;;;;;;12.13;3.08;;;22.10;99.90;;;;;;5091957;28;20124;-75
2023/08/20 08:03:01;;;;;;;12.95;3.20;;;22.20;99.90;;;;;;5087948;28;20059;-79
2023/08/20 08:05:28;;;;;;;11.57;3.20;;;22.30;99.90;;;;;;5082181;28;20044;-77
2023/08/20 08:07:53;;;;;;;10.90;3.13;;;22.40;99.90;;;;;;5084323;28;20036;-77
2023/08/20 08:10:19;;;;;;;10.82;3.00;;;22.40;99.90;;;;;;5104793;28;20535;-75
2023/08/20 08:12:45;;;;;;;15.25;3.15;;;22.40;99.90;;;;;;5105697;28;20050;-75
2023/08/20 08:15:12;;;;;;;15.38;3.67;;;22.50;99.90;;;;;;5085015;28;20044;-76
2023/08/20 08:17:37;;;;;;;17.35;3.40;;;22.60;99.90;;;;;;5087171;28;20147;-75
2023/08/20 08:20:03;;;;;;;11.45;2.92;;;22.60;99.90;;;;;;5092303;28;20101;-75
2023/08/20 08:22:30;;;;;;;11.07;2.90;;;22.60;99.90;;;;;;5090963;28;20036;-78
2023/08/20 08:24:55;;;;;;;14.05;2.92;;;22.80;99.90;;;;;;5090607;28;20059;-76
2023/08/20 08:27:21;;;;;;;15.07;2.88;;;22.90;99.90;;;;;;5086353;28;20393;-76
2023/08/20 08:29:48;;;;;;;13.70;2.92;;;23.10;99.90;;;;;;5085696;28;20037;-78
2023/08/20 08:32:13;;;;;;;14.63;3.40;;;23.20;99.90;;;;;;5091232;28;20052;-75
2023/08/20 08:34:39;;;;;;;10.48;2.88;;;23.30;99.90;;;;;;5095965;28;20305;-75
2023/08/20 08:37:05;;;;;;;16.70;3.08;;;23.40;99.90;;;;;;5101673;28;20044;-76
2023/08/20 08:39:30;;;;;;;9.55;2.65;;;23.50;99.90;;;;;;5087346;28;20130;-75
2023/08/20 08:42:02;;;;;;;12.05;2.88;;;23.60;99.90;;;;;;5105842;28;20051;-75
2023/08/20 08:44:28;;;;;;;10.35;2.30;;;23.70;99.90;;;;;;5088796;28;20061;-75
2023/08/20 08:46:54;;;;;;;16.65;3.17;;;23.80;99.90;;;;;;5099683;28;20040;-76
2023/08/20 08:49:19;;;;;;;9.32;2.33;;;23.80;99.90;;;;;;5084686;28;20040;-75
2023/08/20 08:51:46;;;;;;;11.70;2.50;;;23.90;99.90;;;;;;5093949;28;20394;-75
2023/08/20 08:54:15;;;;;;;8.45;2.33;;;23.90;99.90;;;;;;5093177;28;20387;-76
2023/08/20 08:56:40;;;;;;;11.85;2.88;;;24.00;99.90;;;;;;5119726;27;20045;-75
2023/08/20 08:59:06;;;;;;;12.48;2.90;;;24.00;99.90;;;;;;5094530;28;20048;-75
2023/08/20 09:01:32;;;;;;;10.50;2.35;;;24.10;99.90;;;;;;5091479;28;20055;-75
2023/08/20 09:03:58;;;;;;;9.02;2.10;;;24.10;99.90;;;;;;5094168;28;20044;-78
2023/08/20 09:06:23;;;;;;;10.18;2.10;;;24.20;99.90;;;;;;5090581;28;20039;-77
2023/08/20 09:08:49;;;;;;;10.75;2.53;;;24.20;99.90;;;;;;5095607;28;20047;-78
2023/08/20 09:11:15;;;;;;;10.40;2.40;;;24.20;99.90;;;;;;5090276;28;20044;-77
2023/08/20 09:13:43;;;;;;;9.05;2.13;;;24.30;99.90;;;;;;5082609;28;20137;-77
2023/08/20 09:16:12;;;;;;;11.40;2.67;;;24.20;99.90;;;;;;5091130;28;20044;-77
2023/08/20 09:18:43;;;;;;;10.85;2.38;;;24.30;99.90;;;;;;5108735;28;20052;-78
2023/08/20 09:21:11;;;;;;;9.45;2.30;;;24.30;99.90;;;;;;5096487;28;20472;-76
2023/08/20 09:23:37;;;;;;;11.10;2.30;;;24.40;99.90;;;;;;5065470;28;20044;-76
2023/08/20 09:26:05;;;;;;;8.63;2.25;;;24.40;99.90;;;;;;5087193;28;20076;-75
2023/08/20 09:28:45;;;;;;;10.27;2.30;;;24.60;99.90;;;;;;5084598;28;20047;-76
2023/08/20 09:31:11;;;;;;;9.00;2.15;;;24.70;99.90;;;;;;5088378;28;20498;-77
2023/08/20 09:33:48;;;;;;;7.70;1.80;;;24.70;99.90;;;;;;5089519;28;20592;-75
2023/08/20 09:36:13;;;;;;;8.88;1.92;;;24.80;99.90;;;;;;5084343;28;20185;-76
2023/08/20 09:38:39;;;;;;;5.40;1.80;;;24.80;99.90;;;;;;5092697;28;20040;-75
2023/08/20 09:41:09;;;;;;;7.45;2.30;;;24.80;99.90;;;;;;5082405;28;20044;-75
2023/08/20 09:43:39;;;;;;;10.15;2.20;;;24.70;99.90;;;;;;5088582;28;20045;-77
2023/08/20 09:46:10;;;;;;;13.73;2.97;;;24.60;99.90;;;;;;5077030;28;20048;-76
2023/08/20 09:48:40;;;;;;;8.93;2.33;;;24.70;99.90;;;;;;5085251;28;20044;-76
2023/08/20 09:51:11;;;;;;;10.77;2.20;;;24.80;99.90;;;;;;5083927;28;20033;-76
2023/08/20 09:53:53;;;;;;;11.35;2.30;;;24.70;99.90;;;;;;5084794;28;20437;-76
2023/08/20 09:56:31;;;;;;;7.57;1.95;;;24.90;99.90;;;;;;5088546;28;20485;-76
2023/08/20 09:59:00;;;;;;;13.38;2.40;;;25.00;99.90;;;;;;5085812;28;20432;-77
2023/08/20 10:01:27;;;;;;;10.23;2.28;;;25.20;99.90;;;;;;5086303;28;20040;-77
2023/08/20 10:03:53;;;;;;;8.65;2.58;;;25.20;99.90;;;;;;5077045;28;20032;-75
2023/08/20 10:06:19;;;;;;;9.60;1.83;;;25.30;99.90;;;;;;5089893;28;20032;-75
2023/08/20 10:08:46;;;;;;;6.72;1.98;;;25.20;99.90;;;;;;5088777;28;20036;-76
2023/08/20 10:11:12;;;;;;;8.27;2.17;;;25.20;99.90;;;;;;5082962;28;20044;-76
2023/08/20 10:13:38;;;;;;;7.15;1.70;;;25.20;99.90;;;;;;5078200;28;20302;-75
2023/08/20 10:16:04;;;;;;;11.02;2.08;;;25.30;99.90;;;;;;5086276;28;20052;-76
2023/08/20 10:18:30;;;;;;;10.98;2.10;;;25.40;99.90;;;;;;5117062;27;20048;-76
2023/08/20 10:21:00;;;;;;;9.10;2.33;;;25.50;99.90;;;;;;5086489;28;20044;-78
2023/08/20 10:23:26;;;;;;;5.45;2.00;;;25.60;99.90;;;;;;5084860;28;20138;-76
2023/08/20 10:25:53;;;;;;;11.15;2.67;;;25.70;99.90;;;;;;5086708;28;20133;-77
2023/08/20 10:28:24;;;;;;;11.23;2.70;;;25.90;99.90;;;;;;5083651;28;20044;-78
2023/08/20 10:31:10;;;;;;;6.85;2.05;;;25.90;99.90;;;;;;5090931;28;20441;-77
2023/08/20 10:33:49;;;;;;;8.93;2.00;;;26.00;99.90;;;;;;5085781;28;20060;-76
2023/08/20 10:36:18;;;;;;;8.57;2.40;;;26.00;99.90;;;;;;5086570;28;20041;-78
2023/08/20 10:38:46;;;;;;;6.57;1.98;;;26.10;99.90;;;;;;5091587;28;20041;-77
2023/08/20 10:41:12;;;;;;;9.45;2.70;;;26.10;99.90;;;;;;5084789;28;20391;-76
2023/08/20 10:43:48;;;;;;;7.07;2.13;;;26.20;99.90;;;;;;5083823;28;20048;-77
2023/08/20 10:46:21;;;;;;;9.98;2.58;;;26.30;99.90;;;;;;5089082;28;20052;-76
2023/08/20 10:49:16;;;;;;;10.55;2.20;;;26.50;99.90;;;;;;5082427;28;20048;-77
2023/08/20 10:51:43;;;;;;;7.25;2.05;;;26.70;99.90;;;;;;5083893;28;20132;-77
2023/08/20 10:54:10;;;;;;;9.15;2.45;;;26.90;99.40;;;;;;5085400;28;20036;-77
2023/08/20 10:56:45;;;;;;;10.43;3.08;;;27.00;99.80;;;;;;5082123;28;20072;-77
2023/08/20 10:59:16;;;;;;;7.53;1.88;;;27.20;99.60;;;;;;5077334;28;20032;-77
2023/08/20 11:01:46;;;;;;;8.73;1.75;;;27.40;97.50;;;;;;5085557;28;20067;-77
2023/08/20 11:04:13;;;;;;;8.23;1.88;;;27.50;98.30;;;;;;5074963;28;20113;-77
2023/08/20 11:06:40;;;;;;;11.48;2.03;;;27.70;97.70;;;;;;5083430;28;20036;-78
2023/08/20 11:09:05;;;;;;;6.90;1.88;;;27.90;96.60;;;;;;5089044;28;20037;-78
2023/08/20 11:11:32;;;;;;;10.20;2.03;;;27.80;94.50;;;;;;5089596;28;20497;-76
2023/08/20 11:14:06;;;;;;;7.35;1.90;;;27.70;96.90;;;;;;5085501;28;20040;-77
2023/08/20 11:16:32;;;;;;;6.43;1.90;;;27.50;96.30;;;;;;5079665;28;20032;-77
2023/08/20 11:18:57;;;;;;;8.13;1.98;;;27.50;96.50;;;;;;5118210;28;20052;-77
2023/08/20 11:21:23;;;;;;;6.25;1.83;;;27.40;94.70;;;;;;5084798;28;20501;-77
2023/08/20 11:23:49;;;;;;;6.82;2.20;;;27.40;94.80;;;;;;5090646;28;20119;-77
2023/08/20 11:26:15;;;;;;;7.68;2.17;;;27.40;94.60;;;;;;5081319;28;20036;-77
2023/08/20 11:28:46;;;;;;;6.35;2.00;;;27.20;95.60;;;;;;5084664;28;20041;-78
2023/08/20 11:31:12;;;;;;;6.05;1.55;;;27.40;96.70;;;;;;5092453;28;20407;-78
2023/08/20 11:33:37;;;;;;;6.10;1.60;;;27.60;97.40;;;;;;5084305;28;20063;-78
2023/08/20 11:36:05;;;;;;;4.45;1.42;;;28.00;97.00;;;;;;5083944;28;20076;-78
2023/08/20 11:38:30;;;;;;;;;;;28.20;94.40;;;;;;5097267;28;20080;-77
2023/08/20 11:40:59;;;;;;;8.02;2.05;;;28.30;94.90;;;;;;5088145;28;19923;-77
2023/08/20 11:43:28;;;;;;;7.30;1.98;;;28.60;95.40;;;;;;5092233;28;20037;-78
2023/08/20 11:45:54;;;;;;;13.05;1.77;;;28.90;95.00;;;;;;5078847;28;20044;-78
2023/08/20 11:48:23;;;;;;;4.25;1.45;;;29.20;94.70;;;;;;5080226;28;20047;-78
2023/08/20 11:50:52;;;;;;;5.32;1.85;;;29.40;94.50;;;;;;5091791;28;20033;-77
2023/08/20 11:53:25;;;;;;;7.55;2.08;;;29.50;93.60;;;;;;5095983;28;20070;-79
2023/08/20 11:55:50;;;;;;;8.50;2.47;;;29.40;91.80;;;;;;5088456;28;20036;-77
2023/08/20 11:58:19;;;;;;;8.35;1.73;;;29.30;92.20;;;;;;5082553;28;20409;-78
2023/08/20 12:00:50;;;;;;;6.80;2.17;;;29.20;90.90;;;;;;5082422;28;20082;-77
2023/08/20 12:03:18;;;;;;;8.88;1.90;;;29.00;91.20;;;;;;5095053;28;20056;-78
2023/08/20 12:05:44;;;;;;;6.25;1.67;;;28.50;91.70;;;;;;5084309;28;20089;-77
2023/08/20 12:08:16;;;;;;;8.75;2.30;;;28.50;92.90;;;;;;5090243;28;20039;-78
2023/08/20 12:10:42;;;;;;;7.75;1.90;;;28.40;92.60;;;;;;5096504;28;20397;-78
2023/08/20 12:13:08;;;;;;;7.68;2.05;;;28.10;92.80;;;;;;5077139;28;20123;-78
2023/08/20 12:15:34;;;;;;;7.55;1.80;;;27.80;93.00;;;;;;5073314;28;20119;-77
2023/08/20 12:18:05;;;;;;;6.28;1.42;;;27.70;91.70;;;;;;5083061;28;20085;-77
2023/08/20 12:20:32;;;;;;;9.95;1.92;;;27.40;92.90;;;;;;5094506;28;20074;-78
2023/08/20 12:23:00;;;;;;;6.43;1.83;;;27.40;93.50;;;;;;5081777;28;20085;-77
2023/08/20 12:25:26;;;;;;;6.63;1.58;;;27.70;94.80;;;;;;5092923;28;20089;-77
2023/08/20 12:27:52;;;;;;;6.90;2.27;;;27.70;93.70;;;;;;5093101;28;20513;-76
2023/08/20 12:30:18;;;;;;;5.60;1.60;;;27.90;91.80;;;;;;5082202;28;20274;-77
2023/08/20 12:32:43;;;;;;;5.22;1.70;;;27.90;91.40;;;;;;5086087;28;20577;-76
2023/08/20 12:35:09;;;;;;;6.88;1.75;;;27.80;91.90;;;;;;5087224;28;20028;-77
2023/08/20 12:37:35;;;;;;;8.27;1.85;;;27.80;91.30;;;;;;5094221;28;20047;-78
2023/08/20 12:40:00;;;;;;;8.30;2.47;;;27.90;91.40;;;;;;5091227;28;20491;-76
2023/08/20 12:42:26;;;;;;;5.43;1.58;;;28.00;92.00;;;;;;5094655;28;20071;-77